Pagrindinis puslapis
METAR-TAF:

METAR-TAF

Oro uostai :

Satu Marė, Rumunija

platuma: 47-48N, ilguma: 022-53E, Aukštis: 123 m

Dabartinis oras

Ataskaita buvo paskelbta 13 minutes, ne 06:00 UTC
Vėjas 1 kt nuo kintamojo kryptimis
Temperatūra 7°C
Drėgmė 93%
Slėgis 1028 hPa
Matomumas 10 km arba daugiau
nėra debesų žemiau 1500 m ir nėra kamuolinių lietaus debesų

METAR: LRSM 200600Z VRB01KT CAVOK 07/06 Q1028 R01/22//95

Laikas: 09:13 (06:13 UTC)

Prognozė

Ataskaita buvo paskelbta 1 valandą ir 13 minutes, ne 05:00 UTC
Prognozė galioja nuo 20 metu 06 UTC su 20 metu 15 UTC
Vėjas 4 kt nuo kintamojo kryptimis
Matomumas 10 km arba daugiau
nėra debesų žemiau 1500 m ir nėra kamuolinių lietaus debesų

TAF: LRSM 200500Z 2006/2015 VRB04KT CAVOK

Orai ataskaitas ir orų prognozės (METAR, TAF).

turimą stotys yra geltonos ir raudonos taškus žemėlapyje.

Perkelti pele per norėdami pamatyti stoties vardą.

Tada spustelėkite, norėdami matyti oro stebėjimo ir prognozės.

Norėdami pakeisti žemėlapį: spustelėkite ant žalios mygtukų su juodo kryžiaus žemyn,; žalią mygtuką su brūkšneliu, jei norite nutolinti; arba žalių rodyklių gretimoms žemėlapius.


METAR-TAF: